Time;durP1;ratioP1;P1;durP2;ratioP2;P2;SDS_P1;SDS_P2;PMS_P1;PMS_P2;Temp;Humidity;BMP_temperature;BMP_pressure;BME280_temperature;BME280_humidity;BME280_pressure;Samples;Min_cycle;Max_cycle;Signal;HPM_P1;HPM_P2
2022/08/06 00:00:46;;;;;;;6.20;2.03;;;21.40;47.00;;;;;;5043670;28;20936;-71
2022/08/06 00:03:32;;;;;;;3.13;1.80;;;21.40;46.30;;;;;;5045910;28;20514;-71
2022/08/06 00:06:17;;;;;;;3.33;1.57;;;21.40;47.10;;;;;;5022871;28;20439;-71
2022/08/06 00:09:04;;;;;;;8.43;1.73;;;21.30;47.60;;;;;;5047782;28;20419;-71
2022/08/06 00:11:49;;;;;;;6.27;1.70;;;21.30;47.90;;;;;;5045446;28;20476;-71
2022/08/06 00:14:35;;;;;;;2.90;1.70;;;21.20;48.50;;;;;;5040848;28;20432;-71
2022/08/06 00:17:23;;;;;;;2.27;1.20;;;21.20;48.30;;;;;;5040181;28;20820;-71
2022/08/06 00:20:10;;;;;;;5.67;1.87;;;21.20;49.00;;;;;;5050246;28;20947;-71
2022/08/06 00:22:55;;;;;;;2.30;1.50;;;21.10;49.10;;;;;;5046586;28;20566;-71
2022/08/06 00:25:41;;;;;;;3.73;1.60;;;21.10;49.10;;;;;;5038353;28;20448;-71
2022/08/06 00:28:27;;;;;;;4.67;1.70;;;21.00;48.80;;;;;;5046396;28;20435;-71
2022/08/06 00:31:12;;;;;;;6.63;1.50;;;21.00;49.20;;;;;;5042058;28;20424;-71
2022/08/06 00:34:01;;;;;;;6.73;1.80;;;21.10;50.00;;;;;;5050054;28;20423;-71
2022/08/06 00:36:47;;;;;;;2.90;1.60;;;21.10;50.60;;;;;;5036992;28;20878;-71
2022/08/06 00:39:32;;;;;;;2.80;1.80;;;20.90;51.20;;;;;;5047260;28;20555;-71
2022/08/06 00:42:18;;;;;;;3.03;1.50;;;20.90;51.30;;;;;;5044243;28;20447;-71
2022/08/06 00:45:07;;;;;;;6.43;1.53;;;20.80;51.70;;;;;;5032182;28;20867;-71
2022/08/06 00:47:53;;;;;;;2.30;1.53;;;20.60;52.70;;;;;;5041009;28;20424;-71
2022/08/06 00:50:40;;;;;;;6.37;2.03;;;20.40;53.70;;;;;;5046430;28;20432;-71
2022/08/06 00:53:25;;;;;;;5.43;1.90;;;20.20;55.30;;;;;;5045759;28;20424;-71
2022/08/06 00:56:11;;;;;;;7.30;2.00;;;20.10;55.80;;;;;;5032623;28;20546;-71
2022/08/06 00:58:57;;;;;;;3.40;1.70;;;20.00;56.70;;;;;;5038001;28;20819;-71
2022/08/06 01:01:43;;;;;;;5.23;1.83;;;19.80;58.20;;;;;;5046578;28;20543;-71
2022/08/06 01:04:28;;;;;;;6.33;1.80;;;19.80;60.10;;;;;;5025947;28;20445;-71
2022/08/06 01:07:15;;;;;;;5.20;2.10;;;19.70;60.60;;;;;;5034300;28;20839;-71
2022/08/06 01:10:01;;;;;;;3.93;1.90;;;19.50;61.00;;;;;;5048786;28;20431;-71
2022/08/06 01:12:47;;;;;;;3.33;1.40;;;19.40;61.70;;;;;;5042723;28;20451;-71
2022/08/06 01:15:33;;;;;;;12.40;1.80;;;19.40;62.10;;;;;;5039537;28;20459;-71
2022/08/06 01:18:24;;;;;;;3.50;1.87;;;19.30;62.40;;;;;;5041719;28;20819;-71
2022/08/06 01:21:29;;;;;;;4.87;1.77;;;19.20;63.60;;;;;;5041478;28;20792;-71
2022/08/06 01:24:47;;;;;;;3.37;1.90;;;19.20;64.30;;;;;;5041636;28;20465;-71
2022/08/06 01:27:49;;;;;;;8.10;2.30;;;19.20;64.30;;;;;;5047366;28;20941;-71
2022/08/06 01:30:47;;;;;;;5.60;2.20;;;19.20;64.30;;;;;;5041697;28;20653;-71
2022/08/06 01:33:37;;;;;;;3.17;1.70;;;19.10;64.20;;;;;;5044859;28;20426;-71
2022/08/06 01:36:32;;;;;;;3.80;1.47;;;19.20;64.40;;;;;;5032079;28;20511;-71
2022/08/06 01:39:20;;;;;;;3.60;1.70;;;19.20;64.30;;;;;;5045401;28;20439;-71
2022/08/06 01:42:08;;;;;;;2.93;1.40;;;19.20;64.30;;;;;;5047867;28;20530;-71
2022/08/06 01:45:00;;;;;;;2.20;1.40;;;19.20;64.30;;;;;;5027109;28;20799;-71
2022/08/06 01:47:50;;;;;;;5.20;1.37;;;19.20;64.60;;;;;;5048737;28;20772;-71
2022/08/06 01:50:39;;;;;;;4.07;1.80;;;19.00;65.20;;;;;;5047449;28;20556;-71
2022/08/06 01:53:30;;;;;;;4.10;1.90;;;19.00;65.60;;;;;;5046731;28;20447;-71
2022/08/06 01:56:16;;;;;;;3.60;1.90;;;19.00;66.30;;;;;;5046031;28;20851;-71
2022/08/06 01:59:05;;;;;;;2.83;1.70;;;19.00;67.10;;;;;;5045850;28;20416;-71
2022/08/06 02:01:56;;;;;;;3.57;1.53;;;19.10;67.20;;;;;;5046903;28;20768;-71
2022/08/06 02:04:46;;;;;;;7.13;1.70;;;19.00;66.90;;;;;;5031240;28;20449;-71
2022/08/06 02:07:36;;;;;;;3.30;1.60;;;18.90;67.00;;;;;;5052023;28;20566;-71
2022/08/06 02:10:24;;;;;;;3.47;1.80;;;18.80;67.20;;;;;;5039388;28;20456;-71
2022/08/06 02:13:11;;;;;;;3.90;2.00;;;18.70;67.90;;;;;;5039875;28;20491;-71
2022/08/06 02:15:57;;;;;;;3.47;1.80;;;18.70;68.70;;;;;;5051173;28;20424;-71
2022/08/06 02:18:48;;;;;;;4.30;1.93;;;18.50;69.40;;;;;;5044827;28;20471;-71
2022/08/06 02:21:35;;;;;;;4.93;1.77;;;18.50;69.80;;;;;;5047687;28;20460;-71
2022/08/06 02:24:23;;;;;;;4.50;1.80;;;18.40;70.10;;;;;;5034881;28;20448;-71
2022/08/06 02:27:10;;;;;;;2.90;1.67;;;18.60;70.50;;;;;;5044501;28;20424;-71
2022/08/06 02:29:59;;;;;;;4.00;1.60;;;18.50;70.20;;;;;;5044221;28;20435;-71
2022/08/06 02:32:45;;;;;;;4.63;2.40;;;18.50;70.20;;;;;;5048307;28;20448;-71
2022/08/06 02:35:33;;;;;;;3.10;1.57;;;18.40;70.50;;;;;;5038888;28;20518;-71
2022/08/06 02:38:24;;;;;;;4.93;1.80;;;18.50;70.70;;;;;;5038640;28;20552;-71
2022/08/06 02:41:17;;;;;;;3.07;1.87;;;18.50;71.20;;;;;;5038247;28;20483;-71
2022/08/06 02:44:09;;;;;;;3.50;1.90;;;18.60;70.70;;;;;;5036967;28;20764;-71
2022/08/06 02:47:02;;;;;;;7.50;2.07;;;18.50;70.70;;;;;;5044584;28;20423;-71
2022/08/06 02:49:53;;;;;;;4.03;2.13;;;18.50;71.30;;;;;;5047185;28;20894;-71
2022/08/06 02:52:43;;;;;;;3.60;2.20;;;18.50;71.30;;;;;;5040519;28;20559;-71
2022/08/06 02:55:33;;;;;;;2.73;1.97;;;18.50;71.70;;;;;;5042580;28;20432;-71
2022/08/06 02:58:23;;;;;;;2.87;1.60;;;18.20;71.50;;;;;;5040136;28;20940;-71
2022/08/06 03:01:13;;;;;;;2.73;1.77;;;18.10;72.70;;;;;;5047377;28;20944;-71
2022/08/06 03:04:01;;;;;;;5.00;1.93;;;17.90;74.60;;;;;;5028698;28;20530;-71
2022/08/06 03:06:48;;;;;;;2.83;1.87;;;17.80;75.40;;;;;;5047395;28;20802;-71
2022/08/06 03:09:36;;;;;;;3.30;2.20;;;17.70;76.20;;;;;;5048358;28;20430;-71
2022/08/06 03:12:22;;;;;;;4.13;2.03;;;17.80;76.70;;;;;;5042743;28;20435;-71
2022/08/06 03:15:09;;;;;;;5.37;2.50;;;17.80;76.20;;;;;;5043704;28;20470;-71
2022/08/06 03:17:59;;;;;;;3.93;2.20;;;17.80;76.00;;;;;;5047045;28;20463;-71
2022/08/06 03:20:45;;;;;;;4.43;2.10;;;17.90;76.10;;;;;;5044314;28;21112;-71
2022/08/06 03:23:32;;;;;;;4.40;2.20;;;18.00;76.50;;;;;;5039344;28;20447;-71
2022/08/06 03:26:19;;;;;;;5.30;3.43;;;17.90;75.40;;;;;;5038479;28;20437;-71
2022/08/06 03:29:05;;;;;;;5.77;2.30;;;17.90;75.60;;;;;;5046859;28;20451;-71
2022/08/06 03:31:51;;;;;;;3.43;2.10;;;18.00;76.20;;;;;;5045798;28;20451;-71
2022/08/06 03:34:37;;;;;;;4.20;2.43;;;18.00;76.20;;;;;;5037911;28;20431;-71
2022/08/06 03:37:24;;;;;;;4.07;2.10;;;17.80;76.00;;;;;;5038233;28;20815;-71
2022/08/06 03:40:12;;;;;;;3.90;2.13;;;17.90;76.60;;;;;;5033979;28;20432;-71
2022/08/06 03:43:00;;;;;;;4.63;2.47;;;17.90;76.10;;;;;;5033828;28;20578;-71
2022/08/06 03:45:51;;;;;;;3.60;2.13;;;18.00;76.30;;;;;;5044140;28;20428;-71
2022/08/06 03:48:42;;;;;;;5.77;2.43;;;18.00;76.30;;;;;;5048889;28;20551;-71
2022/08/06 03:51:30;;;;;;;2.97;2.10;;;18.00;76.10;;;;;;5038655;28;20459;-71
2022/08/06 03:54:18;;;;;;;3.23;2.13;;;18.00;75.20;;;;;;5034951;28;20436;-71
2022/08/06 03:57:07;;;;;;;3.50;2.20;;;18.00;75.40;;;;;;5042892;28;20427;-71
2022/08/06 04:00:00;;;;;;;3.50;2.07;;;18.00;75.10;;;;;;5044689;28;20821;-71
2022/08/06 04:02:48;;;;;;;3.67;1.90;;;18.10;74.70;;;;;;5033942;28;20619;-71
2022/08/06 04:05:36;;;;;;;4.67;1.70;;;18.20;74.00;;;;;;5042361;28;20890;-71
2022/08/06 04:08:23;;;;;;;6.80;2.50;;;18.20;73.10;;;;;;5043456;28;20511;-71
2022/08/06 04:11:11;;;;;;;5.67;2.30;;;18.20;72.10;;;;;;5035067;28;20521;-71
2022/08/06 04:13:59;;;;;;;4.50;2.10;;;18.30;72.00;;;;;;5036197;28;20436;-71
2022/08/06 04:16:48;;;;;;;5.90;1.90;;;18.30;71.80;;;;;;5045287;28;20426;-71
2022/08/06 04:19:34;;;;;;;8.03;1.90;;;18.30;71.30;;;;;;5050756;28;20424;-71
2022/08/06 04:22:20;;;;;;;5.47;1.90;;;18.40;71.10;;;;;;5036939;28;20480;-71
2022/08/06 04:25:07;;;;;;;2.83;1.60;;;18.40;69.60;;;;;;5045558;28;20886;-71
2022/08/06 04:27:54;;;;;;;7.83;2.10;;;18.30;69.40;;;;;;5039391;28;20491;-71
2022/08/06 04:30:41;;;;;;;4.80;2.00;;;18.40;69.60;;;;;;5044167;28;20430;-72
2022/08/06 04:33:30;;;;;;;2.77;1.40;;;18.40;69.00;;;;;;5030040;28;20599;-71
2022/08/06 04:36:17;;;;;;;2.60;1.50;;;18.40;68.50;;;;;;5038214;28;20425;-71
2022/08/06 04:39:02;;;;;;;4.00;1.60;;;18.30;68.80;;;;;;5049560;28;20471;-71
2022/08/06 04:41:49;;;;;;;3.30;1.40;;;18.30;68.30;;;;;;5032874;28;20469;-71
2022/08/06 04:44:35;;;;;;;2.30;1.60;;;18.40;68.20;;;;;;5035589;28;20428;-71
2022/08/06 04:47:21;;;;;;;3.10;1.90;;;18.40;68.10;;;;;;5047564;28;20419;-71
2022/08/06 04:50:10;;;;;;;4.27;1.70;;;18.40;67.60;;;;;;5044953;28;20829;-71
2022/08/06 04:53:06;;;;;;;1.80;1.10;;;18.40;67.40;;;;;;5031709;28;20472;-71
2022/08/06 04:55:51;;;;;;;5.13;1.63;;;18.50;66.60;;;;;;5043887;28;20424;-71
2022/08/06 04:58:38;;;;;;;5.20;1.33;;;18.60;66.80;;;;;;5050864;28;20480;-71
2022/08/06 05:01:23;;;;;;;4.27;1.50;;;18.60;66.00;;;;;;5035964;28;20472;-71
2022/08/06 05:04:09;;;;;;;3.50;1.33;;;18.60;65.40;;;;;;5043785;28;20503;-71
2022/08/06 05:07:01;;;;;;;4.33;1.40;;;18.60;65.60;;;;;;5050315;28;20432;-71
2022/08/06 05:09:48;;;;;;;2.80;1.60;;;18.60;64.30;;;;;;5051870;28;20579;-71
2022/08/06 05:12:37;;;;;;;2.90;1.60;;;18.60;65.00;;;;;;5037244;28;20819;-71
2022/08/06 05:15:29;;;;;;;2.67;1.60;;;18.50;64.10;;;;;;5042605;28;20929;-71
2022/08/06 05:18:18;;;;;;;4.17;1.87;;;18.50;64.70;;;;;;5036971;28;20453;-71
2022/08/06 05:21:06;;;;;;;5.17;1.63;;;18.50;63.70;;;;;;5043362;28;21264;-72
2022/08/06 05:23:55;;;;;;;6.47;1.60;;;18.50;63.70;;;;;;5045226;28;20567;-71
2022/08/06 05:26:40;;;;;;;3.70;1.80;;;18.50;63.70;;;;;;5049508;28;20419;-71
2022/08/06 05:29:26;;;;;;;5.33;1.60;;;18.50;63.70;;;;;;5052011;28;20428;-71
2022/08/06 05:32:12;;;;;;;2.50;1.43;;;18.50;63.70;;;;;;5029904;28;20467;-71
2022/08/06 05:34:57;;;;;;;4.40;1.67;;;18.50;63.50;;;;;;5047222;28;20435;-71
2022/08/06 05:37:43;;;;;;;3.63;1.57;;;18.70;63.20;;;;;;5049240;28;20475;-71
2022/08/06 05:40:33;;;;;;;4.77;1.60;;;18.70;63.00;;;;;;5050546;28;20431;-71
2022/08/06 05:43:19;;;;;;;3.23;1.77;;;18.70;62.60;;;;;;5038585;28;20425;-71
2022/08/06 05:46:10;;;;;;;5.13;1.80;;;18.80;62.70;;;;;;5047406;28;20423;-71
2022/08/06 05:49:06;;;;;;;3.90;1.40;;;18.80;62.10;;;;;;5051168;28;20486;-71
2022/08/06 05:51:57;;;;;;;4.67;1.77;;;18.70;62.40;;;;;;5032316;28;20468;-71
2022/08/06 05:54:52;;;;;;;2.67;1.47;;;18.80;62.40;;;;;;5046584;28;20432;-71
2022/08/06 05:57:43;;;;;;;3.80;1.23;;;18.90;62.00;;;;;;5048996;28;20439;-71
2022/08/06 06:00:33;;;;;;;3.80;1.53;;;18.90;61.60;;;;;;5037019;28;20460;-71
2022/08/06 06:03:22;;;;;;;5.03;1.60;;;19.00;61.50;;;;;;5040677;28;20960;-71
2022/08/06 06:06:09;;;;;;;5.13;1.23;;;19.00;61.50;;;;;;5038229;28;20432;-71
2022/08/06 06:08:55;;;;;;;2.13;1.40;;;19.10;61.80;;;;;;5048862;28;20421;-73
2022/08/06 06:11:42;;;;;;;3.50;1.80;;;19.10;61.50;;;;;;5036765;28;20466;-71
2022/08/06 06:14:37;;;;;;;5.43;1.47;;;19.20;60.90;;;;;;5042582;28;20521;-71
2022/08/06 06:17:45;;;;;;;5.27;1.70;;;19.30;60.80;;;;;;5053009;28;20439;-71
2022/08/06 06:20:42;;;;;;;3.87;1.80;;;19.40;60.40;;;;;;5041166;28;20496;-71
2022/08/06 06:23:34;;;;;;;2.80;1.33;;;19.40;59.90;;;;;;5043492;28;20475;-71
2022/08/06 06:26:29;;;;;;;2.47;1.37;;;19.40;60.50;;;;;;5030307;28;20447;-71
2022/08/06 06:29:29;;;;;;;3.20;1.50;;;19.40;60.40;;;;;;5046017;28;20933;-71
2022/08/06 06:32:23;;;;;;;2.77;1.90;;;19.40;60.10;;;;;;5030615;28;20469;-71
2022/08/06 06:35:21;;;;;;;3.90;1.63;;;19.40;60.90;;;;;;5047829;28;20420;-71
2022/08/06 06:38:18;;;;;;;5.50;2.00;;;19.50;60.50;;;;;;5039098;28;20515;-71
2022/08/06 06:41:10;;;;;;;6.30;2.00;;;19.50;60.10;;;;;;5036935;28;20960;-71
2022/08/06 06:44:06;;;;;;;3.27;1.60;;;19.60;60.10;;;;;;5041934;28;20424;-71
2022/08/06 06:46:57;;;;;;;3.93;1.80;;;19.70;59.70;;;;;;5047017;28;20431;-71
2022/08/06 06:49:50;;;;;;;5.13;1.93;;;19.80;58.90;;;;;;5044270;28;20841;-71
2022/08/06 06:52:38;;;;;;;4.20;1.60;;;19.90;58.80;;;;;;5039884;28;21084;-71
2022/08/06 06:55:30;;;;;;;2.57;1.43;;;20.00;58.50;;;;;;5045350;28;20555;-71
2022/08/06 06:58:21;;;;;;;4.83;1.60;;;20.00;57.30;;;;;;5040366;28;20492;-71
2022/08/06 07:01:09;;;;;;;3.63;1.13;;;20.10;56.70;;;;;;5027703;28;20829;-71
2022/08/06 07:03:57;;;;;;;2.57;1.50;;;20.10;56.80;;;;;;5049900;28;20428;-71
2022/08/06 07:06:46;;;;;;;4.00;1.60;;;20.20;56.00;;;;;;5049596;28;21007;-71
2022/08/06 07:09:34;;;;;;;8.63;1.70;;;20.30;54.80;;;;;;5043301;28;21043;-71
2022/08/06 07:12:22;;;;;;;5.37;1.87;;;20.50;51.40;;;;;;5037028;28;20439;-71
2022/08/06 07:15:10;;;;;;;7.50;1.40;;;20.60;50.40;;;;;;5036193;28;20431;-71
2022/08/06 07:17:58;;;;;;;3.03;1.10;;;20.60;50.40;;;;;;5047129;28;20996;-71
2022/08/06 07:20:45;;;;;;;2.80;0.93;;;20.60;49.30;;;;;;5033903;28;20456;-71
2022/08/06 07:23:33;;;;;;;3.20;1.00;;;20.70;47.30;;;;;;5040127;28;20547;-71
2022/08/06 07:26:20;;;;;;;3.97;1.33;;;20.80;44.30;;;;;;5048696;28;20782;-71
2022/08/06 07:29:09;;;;;;;4.40;1.10;;;20.80;44.30;;;;;;5035733;28;20463;-71
2022/08/06 07:31:58;;;;;;;3.30;1.20;;;20.80;42.20;;;;;;5041867;28;20583;-71
2022/08/06 07:34:44;;;;;;;5.10;1.30;;;20.90;42.90;;;;;;5040091;28;20613;-71
2022/08/06 07:37:32;;;;;;;3.80;1.40;;;21.00;42.00;;;;;;5046720;28;20427;-71
2022/08/06 07:40:26;;;;;;;2.30;1.00;;;21.20;39.30;;;;;;5027224;28;20524;-71
2022/08/06 07:43:16;;;;;;;1.80;0.90;;;21.20;37.50;;;;;;5038529;28;20445;-71
2022/08/06 07:46:05;;;;;;;3.43;1.10;;;21.30;38.80;;;;;;5047566;28;20424;-71
2022/08/06 07:48:54;;;;;;;2.70;1.30;;;21.30;33.30;;;;;;5045146;28;20804;-71
2022/08/06 07:51:42;;;;;;;9.63;2.17;;;21.30;34.20;;;;;;5033078;28;20464;-71
2022/08/06 07:54:30;;;;;;;1.97;1.07;;;21.30;34.60;;;;;;5048270;28;20423;-71
2022/08/06 07:57:18;;;;;;;2.50;0.80;;;21.40;33.50;;;;;;5035956;28;20797;-71
2022/08/06 08:00:04;;;;;;;5.13;1.00;;;21.50;32.10;;;;;;5033670;28;20471;-71
2022/08/06 08:08:56;;;;;;;3.00;1.10;;;21.40;30.40;;;;;;5036486;28;20796;-72
2022/08/06 08:11:43;;;;;;;3.87;0.90;;;21.50;30.60;;;;;;5033937;28;20448;-71
2022/08/06 08:14:31;;;;;;;1.77;0.90;;;21.60;29.50;;;;;;5046381;28;20777;-71
2022/08/06 08:17:16;;;;;;;3.70;1.00;;;21.60;28.70;;;;;;5050453;28;20833;-71
2022/08/06 08:20:05;;;;;;;5.10;1.10;;;21.70;29.00;;;;;;5024990;28;20467;-71
2022/08/06 08:22:50;;;;;;;4.37;1.00;;;21.70;29.50;;;;;;5050394;28;20590;-72
2022/08/06 08:25:36;;;;;;;12.07;1.40;;;21.70;28.70;;;;;;5038207;28;20517;-71
2022/08/06 08:28:22;;;;;;;3.00;1.10;;;21.60;30.50;;;;;;5043178;28;20530;-72
2022/08/06 08:31:11;;;;;;;2.53;1.03;;;21.70;30.20;;;;;;5043242;28;20478;-72
2022/08/06 08:33:56;;;;;;;2.00;0.70;;;21.90;29.60;;;;;;5052675;28;20790;-71
2022/08/06 08:36:42;;;;;;;1.80;1.00;;;21.90;29.50;;;;;;5051102;28;20428;-71
2022/08/06 08:39:28;;;;;;;3.30;1.00;;;21.90;31.00;;;;;;5043361;28;20603;-71
2022/08/06 08:42:19;;;;;;;2.93;1.13;;;21.90;30.80;;;;;;5044323;28;21031;-71
2022/08/06 08:45:06;;;;;;;2.40;1.03;;;22.00;31.40;;;;;;5053936;28;20799;-71
2022/08/06 08:47:54;;;;;;;2.17;1.00;;;22.10;31.30;;;;;;5046708;28;20914;-71
2022/08/06 08:50:43;;;;;;;7.03;1.30;;;22.20;29.30;;;;;;5048133;28;20937;-71
2022/08/06 08:53:35;;;;;;;3.20;0.70;;;22.20;28.20;;;;;;5049512;28;20944;-71
2022/08/06 08:56:20;;;;;;;1.87;0.60;;;22.20;28.30;;;;;;5038369;28;20543;-71
2022/08/06 08:59:06;;;;;;;2.27;0.93;;;22.20;27.10;;;;;;5033287;28;20833;-71
2022/08/06 09:01:53;;;;;;;2.37;0.77;;;22.30;27.80;;;;;;5047912;28;20972;-72
2022/08/06 09:04:41;;;;;;;2.73;0.93;;;22.40;28.40;;;;;;5052210;28;20944;-71
2022/08/06 09:07:29;;;;;;;4.10;1.53;;;22.50;27.30;;;;;;5041581;28;20435;-71
2022/08/06 09:10:14;;;;;;;1.90;0.77;;;22.50;27.20;;;;;;5042006;28;20559;-71
2022/08/06 09:13:00;;;;;;;3.00;0.90;;;22.60;28.50;;;;;;5053073;28;21207;-71
2022/08/06 09:15:46;;;;;;;3.00;0.70;;;22.60;28.10;;;;;;5048206;28;20506;-72
2022/08/06 09:18:32;;;;;;;2.97;1.00;;;22.70;26.60;;;;;;5032651;28;20440;-71
2022/08/06 09:21:19;;;;;;;2.37;0.80;;;22.80;26.80;;;;;;5040162;28;20443;-71
2022/08/06 09:24:05;;;;;;;2.40;0.97;;;22.90;26.60;;;;;;5050683;28;20424;-72
2022/08/06 09:27:06;;;;;;;3.40;1.00;;;22.90;26.90;;;;;;5049664;28;20888;-72
2022/08/06 09:29:54;;;;;;;4.23;1.33;;;22.90;26.60;;;;;;5043248;28;20424;-72
2022/08/06 09:32:41;;;;;;;7.83;1.23;;;22.90;26.40;;;;;;5042722;28;20458;-71
2022/08/06 09:35:29;;;;;;;4.70;1.10;;;22.90;27.00;;;;;;5040240;28;20436;-71
2022/08/06 09:38:17;;;;;;;4.17;1.23;;;22.90;26.00;;;;;;5025997;28;20469;-72
2022/08/06 09:41:04;;;;;;;2.47;0.90;;;22.90;26.10;;;;;;5047357;28;20933;-72
2022/08/06 09:43:52;;;;;;;2.10;0.90;;;22.90;26.00;;;;;;5042718;28;20428;-71
2022/08/06 09:46:40;;;;;;;2.67;0.90;;;22.90;27.80;;;;;;5050160;28;20814;-71
2022/08/06 09:49:27;;;;;;;2.67;1.27;;;23.10;25.00;;;;;;5038474;28;20459;-72
2022/08/06 09:52:18;;;;;;;4.00;1.00;;;23.20;24.00;;;;;;5044319;28;20455;-71
2022/08/06 09:55:05;;;;;;;3.00;1.43;;;23.10;25.00;;;;;;5045165;28;20420;-71
2022/08/06 09:57:51;;;;;;;3.27;0.83;;;23.20;25.10;;;;;;5040225;28;20460;-71
2022/08/06 10:00:38;;;;;;;4.73;1.40;;;23.30;24.80;;;;;;5049620;28;21039;-71
2022/08/06 10:03:24;;;;;;;3.43;1.00;;;23.30;24.90;;;;;;5043778;28;20798;-71
2022/08/06 10:06:12;;;;;;;4.33;0.83;;;23.40;24.30;;;;;;5033459;28;20567;-71
2022/08/06 10:09:16;;;;;;;2.30;0.97;;;23.40;23.50;;;;;;5039951;28;20510;-72
2022/08/06 10:12:16;;;;;;;3.37;1.13;;;23.40;23.90;;;;;;5052000;28;20443;-71
2022/08/06 10:15:02;;;;;;;2.37;0.90;;;23.40;25.20;;;;;;5050242;28;20421;-71
2022/08/06 10:17:47;;;;;;;3.30;0.80;;;23.50;23.30;;;;;;5037560;28;20839;-72
2022/08/06 10:20:33;;;;;;;4.23;1.20;;;23.70;23.00;;;;;;5043818;28;20831;-71
2022/08/06 10:23:19;;;;;;;2.40;1.00;;;23.70;22.60;;;;;;5063163;22;20609;-70
2022/08/06 10:26:06;;;;;;;2.40;0.70;;;23.70;22.80;;;;;;5042757;28;20789;-70
2022/08/06 10:28:54;;;;;;;2.40;0.87;;;23.70;21.80;;;;;;5030950;28;20964;-69
2022/08/06 10:31:40;;;;;;;3.23;0.90;;;23.70;21.10;;;;;;5048930;28;20735;-70
2022/08/06 10:34:28;;;;;;;2.83;1.43;;;23.70;22.00;;;;;;5042054;28;20432;-70
2022/08/06 10:37:17;;;;;;;3.33;0.90;;;23.40;22.40;;;;;;5032203;28;20472;-70
2022/08/06 10:40:04;;;;;;;2.20;0.73;;;23.60;22.40;;;;;;5048757;28;20467;-70
2022/08/06 10:42:52;;;;;;;3.73;0.80;;;23.80;23.20;;;;;;5041705;28;20448;-70
2022/08/06 10:45:40;;;;;;;1.80;0.70;;;24.00;21.30;;;;;;5048791;28;20436;-70
2022/08/06 10:48:25;;;;;;;2.23;0.80;;;24.10;22.70;;;;;;5036868;28;21014;-69
2022/08/06 10:51:13;;;;;;;2.40;0.80;;;24.30;21.20;;;;;;5037873;28;20784;-69
2022/08/06 10:53:59;;;;;;;5.30;1.20;;;24.30;21.80;;;;;;5047263;28;20431;-70
2022/08/06 10:56:46;;;;;;;6.47;1.00;;;24.40;21.70;;;;;;5037487;28;20510;-69
2022/08/06 10:59:32;;;;;;;2.27;1.03;;;24.60;22.00;;;;;;5043202;28;20553;-70
2022/08/06 11:02:33;;;;;;;3.10;0.67;;;24.70;22.20;;;;;;5036708;28;20989;-70
2022/08/06 11:05:22;;;;;;;2.93;1.20;;;24.80;20.80;;;;;;5038761;28;21059;-70
2022/08/06 11:08:42;;;;;;;5.20;0.90;;;25.00;21.30;;;;;;5035300;28;20439;-70
2022/08/06 11:11:42;;;;;;;4.63;0.83;;;25.10;20.30;;;;;;5046271;28;20428;-70
2022/08/06 11:14:28;;;;;;;2.20;0.80;;;25.20;19.20;;;;;;5040707;28;20439;-70
2022/08/06 11:17:13;;;;;;;3.00;0.70;;;25.30;19.20;;;;;;5033446;28;20927;-69
2022/08/06 11:20:00;;;;;;;2.63;0.80;;;25.40;19.30;;;;;;5044151;28;20818;-70
2022/08/06 11:22:47;;;;;;;2.23;0.60;;;25.50;19.30;;;;;;5045977;28;20535;-70
2022/08/06 11:25:40;;;;;;;4.80;1.20;;;25.50;18.00;;;;;;5043896;28;20944;-70
2022/08/06 11:29:02;;;;;;;2.13;0.53;;;25.50;18.40;;;;;;5037688;28;20544;-70
2022/08/06 11:31:50;;;;;;;3.10;1.40;;;25.50;18.80;;;;;;5034600;28;20964;-70
2022/08/06 11:34:44;;;;;;;2.20;0.57;;;25.50;18.00;;;;;;5040458;28;20439;-69
2022/08/06 11:37:46;;;;;;;2.83;1.13;;;25.60;17.60;;;;;;5025795;28;20448;-69
2022/08/06 11:40:59;;;;;;;1.70;0.57;;;25.60;18.40;;;;;;5044865;28;20829;-69
2022/08/06 11:44:03;;;;;;;4.73;0.80;;;25.70;16.90;;;;;;5037475;28;20518;-69
2022/08/06 11:47:05;;;;;;;9.00;1.10;;;25.70;16.90;;;;;;5032791;28;20791;-69
2022/08/06 11:49:52;;;;;;;2.07;0.70;;;25.80;16.10;;;;;;5043894;28;20424;-69
2022/08/06 11:52:42;;;;;;;4.23;1.90;;;25.80;16.60;;;;;;5043132;28;20447;-69
2022/08/06 11:55:29;;;;;;;2.63;0.80;;;25.90;15.60;;;;;;5037316;28;20453;-70
2022/08/06 11:58:21;;;;;;;1.97;0.70;;;25.90;15.10;;;;;;5043469;28;20999;-69
2022/08/06 12:01:07;;;;;;;1.70;0.60;;;25.90;15.70;;;;;;5042747;28;20594;-69
2022/08/06 12:03:52;;;;;;;2.40;0.70;;;25.60;16.20;;;;;;5046293;28;20443;-69
2022/08/06 12:06:39;;;;;;;1.63;0.60;;;25.70;15.00;;;;;;5033174;28;20823;-69
2022/08/06 12:09:36;;;;;;;2.73;0.80;;;25.80;13.80;;;;;;5049828;28;20789;-69
2022/08/06 12:12:42;;;;;;;2.47;0.83;;;25.90;14.80;;;;;;5042474;28;20443;-69
2022/08/06 12:15:37;;;;;;;3.60;0.90;;;26.10;13.00;;;;;;5030141;28;20590;-69
2022/08/06 12:18:23;;;;;;;3.03;1.00;;;26.10;15.90;;;;;;5043340;28;20423;-69
2022/08/06 12:21:11;;;;;;;2.10;0.83;;;26.20;14.90;;;;;;5037347;28;20916;-69
2022/08/06 12:23:57;;;;;;;1.87;0.70;;;26.30;14.20;;;;;;5043042;28;20421;-69
2022/08/06 12:26:44;;;;;;;6.90;0.80;;;26.30;15.80;;;;;;5029587;28;20969;-69
2022/08/06 12:29:32;;;;;;;1.90;0.60;;;26.50;14.60;;;;;;5045201;28;20948;-69
2022/08/06 12:32:21;;;;;;;1.70;0.70;;;26.60;14.70;;;;;;5042131;28;20439;-69
2022/08/06 12:35:12;;;;;;;3.20;0.90;;;26.80;15.70;;;;;;5032486;28;20463;-69
2022/08/06 12:37:57;;;;;;;1.93;0.60;;;26.80;15.30;;;;;;5037760;28;20432;-69
2022/08/06 12:40:54;;;;;;;3.57;1.00;;;26.80;15.80;;;;;;5037579;28;20475;-69
2022/08/06 12:43:44;;;;;;;3.70;1.20;;;26.90;15.50;;;;;;5044593;28;20542;-69
2022/08/06 12:46:32;;;;;;;5.53;0.97;;;27.00;14.50;;;;;;5026791;28;20444;-69
2022/08/06 12:49:17;;;;;;;1.80;0.50;;;26.90;13.50;;;;;;5047215;28;20428;-69
2022/08/06 12:52:12;;;;;;;3.30;1.00;;;26.90;15.30;;;;;;5047549;28;20448;-69
2022/08/06 12:54:58;;;;;;;2.43;0.80;;;26.80;14.40;;;;;;5036906;28;20449;-69
2022/08/06 12:57:44;;;;;;;1.73;0.60;;;26.70;15.10;;;;;;5039131;28;20554;-69
2022/08/06 13:00:30;;;;;;;3.00;0.80;;;26.90;15.50;;;;;;5048181;28;20880;-69
2022/08/06 13:03:19;;;;;;;6.17;1.10;;;27.20;14.20;;;;;;5043189;28;20546;-69
2022/08/06 13:06:07;;;;;;;2.30;1.00;;;27.20;14.20;;;;;;5025359;28;20965;-69
2022/08/06 13:08:55;;;;;;;2.10;0.87;;;27.20;13.80;;;;;;5041729;28;20431;-69
2022/08/06 13:11:40;;;;;;;1.80;0.60;;;27.10;14.70;;;;;;5047940;28;20431;-69
2022/08/06 13:14:26;;;;;;;5.07;0.83;;;27.30;13.80;;;;;;5034608;28;20457;-69
2022/08/06 13:17:13;;;;;;;2.20;1.00;;;27.40;14.20;;;;;;5045346;28;20562;-69
2022/08/06 13:20:00;;;;;;;2.00;0.70;;;27.60;13.80;;;;;;5053845;28;20467;-69
2022/08/06 13:22:50;;;;;;;1.97;0.70;;;27.80;13.10;;;;;;5046550;28;20464;-69
2022/08/06 13:25:43;;;;;;;2.00;0.80;;;27.80;11.90;;;;;;5033990;28;21193;-69
2022/08/06 13:28:29;;;;;;;2.47;1.07;;;27.90;13.00;;;;;;5046894;28;21064;-69
2022/08/06 13:31:19;;;;;;;2.00;1.00;;;27.90;13.30;;;;;;5026258;28;20464;-69
2022/08/06 13:34:06;;;;;;;2.00;0.70;;;28.10;13.00;;;;;;5031067;28;20433;-70
2022/08/06 13:36:57;;;;;;;4.43;1.13;;;28.30;13.10;;;;;;5029907;28;20476;-69
2022/08/06 13:39:51;;;;;;;2.07;0.77;;;28.60;12.40;;;;;;5032780;28;20444;-70
2022/08/06 13:42:49;;;;;;;6.60;0.70;;;28.80;11.80;;;;;;5027083;28;20467;-70
2022/08/06 13:45:34;;;;;;;3.70;0.80;;;29.00;11.90;;;;;;5031233;28;20523;-69
2022/08/06 13:48:20;;;;;;;3.67;0.93;;;29.10;11.60;;;;;;5027632;28;20448;-70
2022/08/06 13:51:06;;;;;;;4.30;0.60;;;29.10;11.70;;;;;;5032080;28;20452;-70
2022/08/06 13:53:53;;;;;;;2.03;0.60;;;29.20;10.70;;;;;;5030581;28;20449;-70
2022/08/06 13:56:38;;;;;;;2.37;0.60;;;29.40;10.90;;;;;;5038464;28;20428;-70
2022/08/06 13:59:27;;;;;;;4.23;0.73;;;29.00;10.80;;;;;;5036266;28;20437;-70
2022/08/06 14:02:12;;;;;;;2.23;0.73;;;29.10;12.10;;;;;;5040214;28;20514;-70
2022/08/06 14:04:58;;;;;;;2.67;0.87;;;29.20;10.60;;;;;;5031446;28;20583;-70
2022/08/06 14:07:44;;;;;;;3.10;0.70;;;29.10;12.20;;;;;;5046098;28;20447;-70
2022/08/06 14:10:31;;;;;;;2.43;0.73;;;29.20;11.90;;;;;;5042673;28;20424;-70
2022/08/06 14:13:17;;;;;;;3.30;0.70;;;29.30;11.00;;;;;;5036714;28;20619;-70
2022/08/06 14:16:02;;;;;;;3.80;1.00;;;29.40;11.40;;;;;;5038545;28;20439;-71
2022/08/06 14:18:48;;;;;;;3.30;0.80;;;29.40;10.90;;;;;;5041571;28;20599;-70
2022/08/06 14:21:34;;;;;;;2.40;0.70;;;29.50;12.00;;;;;;5040644;28;21478;-69
2022/08/06 14:24:20;;;;;;;2.43;0.70;;;29.50;10.50;;;;;;5035238;28;20930;-70
2022/08/06 14:27:08;;;;;;;4.17;1.10;;;29.10;10.30;;;;;;5036058;28;20789;-70
2022/08/06 14:29:53;;;;;;;4.30;0.80;;;29.00;12.30;;;;;;5031814;28;20460;-70
2022/08/06 14:32:39;;;;;;;2.20;0.50;;;29.10;11.50;;;;;;5028734;28;20472;-69
2022/08/06 14:35:25;;;;;;;2.67;0.60;;;29.20;10.40;;;;;;5028857;28;20464;-70
2022/08/06 14:38:12;;;;;;;4.10;0.67;;;29.20;11.00;;;;;;5031864;28;20459;-70
2022/08/06 14:47:08;;;;;;;4.70;0.83;;;29.40;10.70;;;;;;5029822;28;20810;-69
2022/08/06 14:49:53;;;;;;;4.80;0.80;;;29.30;9.70;;;;;;5048571;28;20446;-70
2022/08/06 14:52:40;;;;;;;3.03;0.70;;;29.30;10.50;;;;;;5039305;28;20480;-70